createdAt,value
2023-01-30T00:00:08.647Z,83.71
2023-01-30T00:02:58.451Z,83.49
2023-01-30T00:05:28.175Z,83.93
2023-01-30T00:07:58.044Z,84.00
2023-01-30T00:10:27.315Z,83.68
2023-01-30T00:12:56.581Z,83.39
2023-01-30T00:15:26.295Z,84.04
2023-01-30T00:17:55.378Z,83.82
2023-01-30T00:20:24.692Z,83.91
2023-01-30T00:23:00.796Z,84.35
2023-01-30T00:25:32.778Z,84.52
2023-01-30T00:28:03.757Z,84.70
2023-01-30T00:30:33.490Z,84.03
2023-01-30T00:33:03.578Z,84.66
2023-01-30T00:35:34.341Z,84.92
2023-01-30T00:38:04.597Z,84.53
2023-01-30T00:40:34.372Z,84.60
2023-01-30T00:43:23.719Z,85.26
2023-01-30T00:46:14.939Z,85.02
2023-01-30T00:48:46.527Z,84.79
2023-01-30T00:51:17.079Z,84.73
2023-01-30T00:53:46.513Z,84.93
2023-01-30T00:56:16.461Z,85.02
2023-01-30T00:58:46.820Z,85.05
2023-01-30T01:01:17.615Z,84.99
2023-01-30T01:03:47.930Z,85.08
2023-01-30T01:06:18.040Z,84.98
2023-01-30T01:08:48.969Z,84.46
2023-01-30T01:11:25.094Z,84.78
2023-01-30T01:14:03.364Z,84.83
2023-01-30T01:16:35.174Z,84.84
2023-01-30T01:19:04.389Z,84.40
2023-01-30T01:21:34.630Z,84.49
2023-01-30T01:24:04.632Z,84.78
2023-01-30T01:26:35.929Z,84.78
2023-01-30T01:29:06.604Z,84.21
2023-01-30T01:31:37.637Z,83.68
2023-01-30T01:34:08.251Z,84.42
2023-01-30T01:36:56.611Z,84.19
2023-01-30T01:39:48.050Z,83.37
2023-01-30T01:42:18.327Z,83.75
2023-01-30T01:45:13.239Z,84.04
2023-01-30T01:47:59.700Z,83.97
2023-01-30T01:50:55.499Z,83.42
2023-01-30T01:53:31.450Z,84.09
2023-01-30T01:56:05.630Z,83.50
2023-01-30T01:58:49.186Z,83.15
2023-01-30T02:01:20.537Z,82.77
2023-01-30T02:03:58.060Z,82.73
2023-01-30T02:06:29.541Z,82.53
2023-01-30T02:09:06.575Z,81.79
2023-01-30T02:11:50.236Z,81.74
2023-01-30T02:14:21.500Z,82.43
2023-01-30T02:16:51.545Z,82.72
2023-01-30T02:19:35.943Z,81.81
2023-01-30T02:22:19.296Z,81.37
2023-01-30T02:25:13.323Z,80.90
2023-01-30T02:28:01.714Z,81.46
2023-01-30T02:30:44.123Z,80.29
2023-01-30T02:33:17.404Z,80.81
2023-01-30T02:36:11.284Z,80.35
2023-01-30T02:39:03.069Z,80.26
2023-01-30T02:42:06.329Z,81.42
2023-01-30T02:45:09.168Z,80.41
2023-01-30T02:48:02.602Z,81.41
2023-01-30T02:50:33.973Z,81.43
2023-01-30T02:53:07.539Z,80.50
2023-01-30T02:55:43.395Z,81.19
2023-01-30T02:58:16.256Z,80.45
2023-01-30T03:00:51.895Z,80.22
2023-01-30T03:03:50.718Z,80.42
2023-01-30T03:06:39.777Z,80.06
2023-01-30T03:09:37.331Z,79.95
2023-01-30T03:12:29.012Z,80.32
2023-01-30T03:15:56.852Z,79.51
2023-01-30T03:18:29.568Z,80.77
2023-01-30T03:21:06.804Z,81.49
2023-01-30T03:23:37.278Z,82.39
2023-01-30T03:26:13.513Z,80.66
2023-01-30T03:28:46.318Z,80.57
2023-01-30T03:31:16.783Z,80.28
2023-01-30T03:33:47.068Z,80.70
2023-01-30T03:36:17.478Z,81.30
2023-01-30T03:38:49.432Z,81.40
2023-01-30T03:41:19.000Z,81.25
2023-01-30T03:43:48.996Z,81.71
2023-01-30T03:46:19.439Z,81.39
2023-01-30T03:48:49.215Z,81.76
2023-01-30T03:51:20.108Z,82.11
2023-01-30T03:53:49.862Z,82.40
2023-01-30T03:56:19.876Z,82.66
2023-01-30T03:58:50.329Z,83.13
2023-01-30T04:01:26.897Z,83.16
2023-01-30T04:03:56.236Z,83.32
2023-01-30T04:06:27.534Z,83.41
2023-01-30T04:08:58.553Z,83.62
2023-01-30T04:11:44.461Z,83.55
2023-01-30T04:14:14.479Z,83.05
2023-01-30T04:17:03.731Z,82.87
2023-01-30T04:19:54.753Z,82.92
2023-01-30T04:22:24.448Z,82.55
2023-01-30T04:24:54.446Z,83.21
2023-01-30T04:27:24.475Z,83.39
2023-01-30T04:30:10.099Z,83.25
2023-01-30T04:32:39.762Z,83.09
2023-01-30T04:35:09.124Z,83.14
2023-01-30T04:37:39.213Z,82.79
2023-01-30T04:40:09.902Z,82.67
2023-01-30T04:42:39.268Z,82.58
2023-01-30T04:45:30.164Z,82.73
2023-01-30T04:48:00.418Z,83.06
2023-01-30T04:50:30.274Z,83.16
2023-01-30T04:52:59.498Z,83.34
2023-01-30T04:55:29.688Z,82.47
2023-01-30T04:57:59.794Z,80.60
2023-01-30T05:00:29.538Z,81.41
2023-01-30T05:03:01.469Z,82.00
2023-01-30T05:05:31.291Z,81.99
2023-01-30T05:08:00.892Z,82.34
2023-01-30T05:10:30.089Z,82.14
2023-01-30T05:13:06.374Z,81.71
2023-01-30T05:15:35.547Z,82.00
2023-01-30T05:18:04.344Z,81.49
2023-01-30T05:20:33.331Z,80.65
2023-01-30T05:23:02.756Z,80.76
2023-01-30T05:25:32.051Z,82.34
2023-01-30T05:28:01.329Z,82.07
2023-01-30T05:30:30.890Z,81.56
2023-01-30T05:33:00.036Z,81.15
2023-01-30T05:35:29.952Z,81.22
2023-01-30T05:37:59.570Z,81.56
2023-01-30T05:40:28.648Z,82.04
2023-01-30T05:42:57.753Z,83.93
2023-01-30T05:45:27.459Z,84.03
2023-01-30T05:47:58.601Z,84.36
2023-01-30T05:50:31.733Z,84.71
2023-01-30T05:53:00.781Z,84.61
2023-01-30T05:55:29.573Z,84.67
2023-01-30T05:57:59.953Z,86.34
2023-01-30T06:00:29.101Z,86.42
2023-01-30T06:02:58.221Z,86.38
2023-01-30T06:05:29.235Z,86.97
2023-01-30T06:07:58.015Z,87.31
2023-01-30T06:10:27.006Z,86.70
2023-01-30T06:12:56.106Z,86.17
2023-01-30T06:15:24.989Z,85.77
2023-01-30T06:17:53.987Z,85.86
2023-01-30T06:20:23.189Z,86.06
2023-01-30T06:22:52.787Z,86.52
2023-01-30T06:25:22.096Z,86.84
2023-01-30T06:27:51.285Z,88.02
2023-01-30T06:30:20.617Z,88.10
2023-01-30T06:32:52.662Z,88.12
2023-01-30T06:35:21.971Z,88.57
2023-01-30T06:37:50.939Z,89.17
2023-01-30T06:40:20.943Z,89.01
2023-01-30T06:42:49.990Z,88.37
2023-01-30T06:45:20.585Z,87.50
2023-01-30T06:47:55.312Z,87.46
2023-01-30T06:50:26.953Z,87.89
2023-01-30T06:52:57.335Z,88.19
2023-01-30T06:55:29.022Z,87.92
2023-01-30T06:58:15.431Z,87.23
2023-01-30T07:00:44.655Z,86.22
2023-01-30T07:03:18.157Z,86.09
2023-01-30T07:05:48.215Z,85.23
2023-01-30T07:08:17.685Z,85.51
2023-01-30T07:10:46.681Z,85.18
2023-01-30T07:13:16.082Z,84.85
2023-01-30T07:15:45.272Z,84.71
2023-01-30T07:18:14.148Z,84.33
2023-01-30T07:20:46.628Z,83.32
2023-01-30T07:23:15.412Z,82.85
2023-01-30T07:25:44.615Z,82.47
2023-01-30T07:28:13.289Z,82.21
2023-01-30T07:30:42.124Z,82.56
2023-01-30T07:33:11.085Z,82.71
2023-01-30T07:35:40.176Z,82.67
2023-01-30T07:38:08.952Z,82.74
2023-01-30T07:40:37.860Z,82.47
2023-01-30T07:43:14.021Z,81.89
2023-01-30T07:45:47.457Z,81.65
2023-01-30T07:48:19.414Z,82.25
2023-01-30T07:50:48.165Z,81.76
2023-01-30T07:53:18.923Z,81.43
2023-01-30T07:55:47.587Z,80.24
2023-01-30T07:58:16.970Z,79.67
2023-01-30T08:00:45.854Z,78.60
2023-01-30T08:03:17.521Z,77.53
2023-01-30T08:05:47.373Z,77.25
2023-01-30T08:08:16.529Z,77.40
2023-01-30T08:10:45.319Z,76.85
2023-01-30T08:13:13.999Z,77.58
2023-01-30T08:15:43.550Z,78.42
2023-01-30T08:18:12.307Z,78.85
2023-01-30T08:20:43.050Z,78.43
2023-01-30T08:23:11.813Z,78.40
2023-01-30T08:25:40.612Z,77.39
2023-01-30T08:28:09.183Z,78.14
2023-01-30T08:30:38.315Z,77.99
2023-01-30T08:33:07.583Z,78.10
2023-01-30T08:35:36.370Z,78.00
2023-01-30T08:38:07.731Z,77.94
2023-01-30T08:40:37.323Z,74.16
2023-01-30T08:43:07.248Z,72.06
2023-01-30T08:45:38.602Z,75.26
2023-01-30T08:48:08.189Z,75.56
2023-01-30T08:50:36.784Z,74.91
2023-01-30T08:53:07.299Z,74.89
2023-01-30T08:55:35.994Z,74.81
2023-01-30T08:58:04.993Z,74.87
2023-01-30T09:00:33.792Z,73.88
2023-01-30T09:03:03.084Z,74.44
2023-01-30T09:05:31.963Z,74.13
2023-01-30T09:08:01.153Z,73.33
2023-01-30T09:10:31.174Z,72.91
2023-01-30T09:13:01.811Z,73.21
2023-01-30T09:15:30.489Z,72.97
2023-01-30T09:17:59.714Z,73.18
2023-01-30T09:20:29.814Z,72.98
2023-01-30T09:22:58.711Z,73.06
2023-01-30T09:25:27.898Z,72.49
2023-01-30T09:27:57.091Z,72.84
2023-01-30T09:30:26.183Z,72.59
2023-01-30T09:32:55.393Z,73.26
2023-01-30T09:35:24.375Z,72.37
2023-01-30T09:37:54.397Z,72.30
2023-01-30T09:40:31.559Z,71.32
2023-01-30T09:43:15.219Z,71.24
2023-01-30T09:46:11.412Z,70.83
2023-01-30T09:49:15.565Z,71.54
2023-01-30T09:51:56.845Z,69.49
2023-01-30T09:54:35.769Z,70.10
2023-01-30T09:57:21.733Z,70.29
2023-01-30T10:00:02.943Z,70.13
2023-01-30T10:02:52.410Z,70.23
2023-01-30T10:05:22.115Z,70.80
2023-01-30T10:08:02.989Z,69.61
2023-01-30T10:11:00.758Z,69.17
2023-01-30T10:13:57.924Z,67.93
2023-01-30T10:17:07.880Z,67.12
2023-01-30T10:20:07.428Z,67.81
2023-01-30T10:23:15.377Z,68.59
2023-01-30T10:25:49.801Z,68.18
2023-01-30T10:28:38.045Z,68.42
2023-01-30T10:31:16.453Z,67.98
2023-01-30T10:33:58.665Z,67.63
2023-01-30T10:36:43.861Z,67.39
2023-01-30T10:39:55.378Z,67.54
2023-01-30T10:42:32.509Z,67.14
2023-01-30T10:45:11.769Z,67.75
2023-01-30T10:48:00.094Z,67.96
2023-01-30T10:50:44.741Z,68.12
2023-01-30T10:54:00.716Z,67.56
2023-01-30T10:57:20.433Z,66.88
2023-01-30T11:00:07.546Z,67.10
2023-01-30T11:02:49.055Z,67.43
2023-01-30T11:05:24.872Z,67.61
2023-01-30T11:07:53.768Z,67.55
2023-01-30T11:10:26.804Z,68.59
2023-01-30T11:13:14.994Z,67.96
2023-01-30T11:15:47.502Z,67.99
2023-01-30T11:21:10.562Z,67.32
2023-01-30T11:23:44.145Z,67.14
2023-01-30T11:26:19.865Z,67.90
2023-01-30T11:28:49.156Z,68.56
2023-01-30T11:31:40.005Z,68.05
2023-01-30T11:34:18.488Z,67.10
2023-01-30T11:36:48.432Z,68.43
2023-01-30T11:39:18.872Z,69.10
2023-01-30T11:42:04.134Z,69.03
2023-01-30T11:44:35.978Z,69.19
2023-01-30T11:47:21.066Z,69.11
2023-01-30T11:50:07.943Z,69.26
2023-01-30T11:52:46.034Z,69.37
2023-01-30T11:55:17.585Z,69.41
2023-01-30T11:57:58.903Z,69.87
2023-01-30T12:00:48.995Z,69.86
2023-01-30T12:03:24.601Z,69.66
2023-01-30T12:05:55.588Z,69.73
2023-01-30T12:08:41.070Z,69.72
2023-01-30T12:11:27.480Z,70.17
2023-01-30T12:14:18.270Z,70.23
2023-01-30T12:17:10.093Z,70.41
2023-01-30T12:19:51.176Z,70.59
2023-01-30T12:22:50.683Z,70.42
2023-01-30T12:26:09.136Z,70.79
2023-01-30T12:28:40.788Z,70.93
2023-01-30T12:31:21.452Z,70.81
2023-01-30T12:33:50.037Z,70.56
2023-01-30T12:36:40.688Z,70.55
2023-01-30T12:39:44.242Z,70.60
2023-01-30T12:42:42.009Z,71.16
2023-01-30T12:45:26.587Z,71.37
2023-01-30T12:48:19.215Z,71.40
2023-01-30T12:50:47.797Z,71.35
2023-01-30T12:53:27.954Z,71.53
2023-01-30T12:56:02.780Z,71.48
2023-01-30T12:58:38.944Z,70.87
2023-01-30T13:01:15.644Z,71.44
2023-01-30T13:03:46.662Z,71.81
2023-01-30T13:06:33.668Z,71.96
2023-01-30T13:09:22.237Z,72.55
2023-01-30T13:11:58.689Z,72.46
2023-01-30T13:14:56.146Z,72.47
2023-01-30T13:17:41.622Z,72.39
2023-01-30T13:20:10.312Z,72.85
2023-01-30T13:22:45.139Z,73.16
2023-01-30T13:25:23.756Z,73.25
2023-01-30T13:28:26.640Z,73.06
2023-01-30T13:30:56.855Z,73.15
2023-01-30T13:33:33.547Z,73.35
2023-01-30T13:36:20.350Z,73.28
2023-01-30T13:38:58.867Z,73.00
2023-01-30T13:41:32.080Z,73.10
2023-01-30T13:44:02.686Z,72.91
2023-01-30T13:46:33.362Z,72.73
2023-01-30T13:49:09.582Z,73.03
2023-01-30T13:51:43.592Z,73.46
2023-01-30T13:54:36.971Z,74.27
2023-01-30T13:57:40.763Z,73.94
2023-01-30T14:00:27.239Z,73.46
2023-01-30T14:03:07.990Z,73.39
2023-01-30T14:05:52.400Z,73.43
2023-01-30T14:08:27.524Z,73.62
2023-01-30T14:10:57.849Z,73.52
2023-01-30T14:13:28.430Z,73.86
2023-01-30T14:16:06.275Z,73.93
2023-01-30T14:18:39.009Z,73.96
2023-01-30T14:21:21.468Z,73.59
2023-01-30T14:24:02.369Z,73.61
2023-01-30T14:26:49.038Z,74.27
2023-01-30T14:29:45.992Z,74.45
2023-01-30T14:32:14.753Z,74.21
2023-01-30T14:34:48.424Z,74.66
2023-01-30T14:37:43.492Z,74.05
2023-01-30T14:40:21.286Z,74.81
2023-01-30T14:43:15.781Z,74.92
2023-01-30T14:45:55.215Z,76.24
2023-01-30T14:48:44.969Z,76.23
2023-01-30T14:51:36.237Z,76.21
2023-01-30T14:54:14.860Z,77.21
2023-01-30T14:56:55.698Z,76.58
2023-01-30T14:59:29.708Z,76.17
2023-01-30T15:02:13.388Z,75.63
2023-01-30T15:04:45.921Z,75.48
2023-01-30T15:07:30.274Z,76.88
2023-01-30T15:10:02.037Z,76.50
2023-01-30T15:13:07.994Z,75.89
2023-01-30T15:16:17.972Z,75.79
2023-01-30T15:19:07.309Z,76.08
2023-01-30T15:22:00.474Z,76.25
2023-01-30T15:25:08.261Z,76.31
2023-01-30T15:27:51.400Z,76.81
2023-01-30T15:30:43.164Z,77.33
2023-01-30T15:33:29.967Z,79.41
2023-01-30T15:36:00.973Z,81.67
2023-01-30T15:38:34.175Z,81.77
2023-01-30T15:41:05.822Z,82.19
2023-01-30T15:43:52.843Z,82.44
2023-01-30T15:46:39.235Z,79.39
2023-01-30T15:49:20.313Z,78.77
2023-01-30T15:51:49.204Z,79.30
2023-01-30T15:54:21.379Z,80.08
2023-01-30T15:56:50.256Z,79.76
2023-01-30T15:59:27.139Z,80.78
2023-01-30T16:02:15.445Z,81.97
2023-01-30T16:04:45.513Z,81.72
2023-01-30T16:07:24.025Z,83.13
2023-01-30T16:10:07.360Z,83.30
2023-01-30T16:12:41.177Z,82.93
2023-01-30T16:15:40.975Z,83.15
2023-01-30T16:18:21.950Z,85.16
2023-01-30T16:21:03.423Z,85.27
2023-01-30T16:23:34.465Z,84.93
2023-01-30T16:26:05.105Z,85.72
2023-01-30T16:28:33.992Z,86.11
2023-01-30T16:31:08.559Z,84.47
2023-01-30T16:33:38.014Z,86.22
2023-01-30T16:36:27.085Z,87.73
2023-01-30T16:38:56.276Z,87.91
2023-01-30T16:41:33.257Z,88.45
2023-01-30T16:44:28.356Z,88.36
2023-01-30T16:47:08.013Z,88.86
2023-01-30T16:49:36.599Z,89.42
2023-01-30T16:52:31.902Z,89.92
2023-01-30T16:55:03.545Z,89.61
2023-01-30T16:57:42.001Z,89.71
2023-01-30T17:00:22.153Z,87.59
2023-01-30T17:03:19.262Z,86.11
2023-01-30T17:05:49.789Z,86.63
2023-01-30T17:08:45.719Z,90.17
2023-01-30T17:11:40.844Z,90.73
2023-01-30T17:14:26.235Z,90.99
2023-01-30T17:17:01.981Z,90.57
2023-01-30T17:19:31.046Z,89.95
2023-01-30T17:22:02.818Z,90.89
2023-01-30T17:24:31.488Z,91.96
2023-01-30T17:27:02.774Z,91.63
2023-01-30T17:29:42.577Z,90.75
2023-01-30T17:32:15.520Z,90.35
2023-01-30T17:34:44.259Z,90.17
2023-01-30T17:37:17.245Z,90.66
2023-01-30T17:39:46.652Z,90.60
2023-01-30T17:42:22.515Z,90.22
2023-01-30T17:44:51.305Z,88.92
2023-01-30T17:47:21.303Z,89.10
2023-01-30T17:49:49.895Z,88.66
2023-01-30T17:52:19.389Z,87.84
2023-01-30T17:54:47.971Z,88.02
2023-01-30T17:57:17.275Z,87.66
2023-01-30T17:59:47.211Z,87.58
2023-01-30T18:02:15.881Z,86.60
2023-01-30T18:04:44.458Z,86.22
2023-01-30T18:07:16.797Z,86.16
2023-01-30T18:09:45.512Z,86.34
2023-01-30T18:12:13.995Z,86.84
2023-01-30T18:14:42.490Z,86.80
2023-01-30T18:17:11.262Z,86.88
2023-01-30T18:19:39.945Z,86.72
2023-01-30T18:22:08.743Z,86.73
2023-01-30T18:24:37.422Z,86.45
2023-01-30T18:27:06.008Z,86.32
2023-01-30T18:29:34.895Z,86.21
2023-01-30T18:32:06.036Z,86.31
2023-01-30T18:34:35.646Z,86.61
2023-01-30T18:37:04.224Z,86.40
2023-01-30T18:39:32.916Z,86.73
2023-01-30T18:42:02.429Z,86.50
2023-01-30T18:44:31.513Z,86.37
2023-01-30T18:47:00.314Z,86.33
2023-01-30T18:49:30.522Z,86.22
2023-01-30T18:51:59.004Z,86.67
2023-01-30T18:54:27.594Z,86.85
2023-01-30T18:56:57.395Z,86.73
2023-01-30T18:59:26.913Z,86.35
2023-01-30T19:01:55.898Z,85.94
2023-01-30T19:04:24.480Z,86.53
2023-01-30T19:06:55.009Z,87.10
2023-01-30T19:09:23.692Z,87.25
2023-01-30T19:12:10.916Z,87.09
2023-01-30T19:14:40.210Z,87.27
2023-01-30T19:17:09.000Z,87.45
2023-01-30T19:19:37.787Z,86.70
2023-01-30T19:22:06.368Z,86.36
2023-01-30T19:24:34.952Z,86.84
2023-01-30T19:27:05.636Z,86.90
2023-01-30T19:29:34.168Z,86.85
2023-01-30T19:32:03.028Z,86.90
2023-01-30T19:34:32.150Z,86.71
2023-01-30T19:37:01.595Z,86.93
2023-01-30T19:39:30.353Z,87.45
2023-01-30T19:41:59.850Z,87.40
2023-01-30T19:44:28.539Z,87.31
2023-01-30T19:46:57.223Z,86.76
2023-01-30T19:49:25.904Z,87.05
2023-01-30T19:51:54.489Z,86.82
2023-01-30T19:54:23.171Z,86.71
2023-01-30T19:56:52.066Z,86.86
2023-01-30T19:59:20.727Z,86.59
2023-01-30T20:01:49.244Z,86.36
2023-01-30T20:04:18.119Z,86.83
2023-01-30T20:06:46.805Z,86.56
2023-01-30T20:09:16.519Z,86.81
2023-01-30T20:11:47.243Z,86.78
2023-01-30T20:14:15.740Z,86.68
2023-01-30T20:16:44.416Z,86.94
2023-01-30T20:19:16.463Z,86.42
2023-01-30T20:21:45.775Z,87.04
2023-01-30T20:24:16.310Z,87.15
2023-01-30T20:26:48.271Z,86.91
2023-01-30T20:29:18.280Z,87.56
2023-01-30T20:31:47.065Z,87.69
2023-01-30T20:34:15.972Z,87.43
2023-01-30T20:36:45.002Z,87.55
2023-01-30T20:39:15.179Z,86.84
2023-01-30T20:41:43.766Z,86.77
2023-01-30T20:44:14.398Z,87.22
2023-01-30T20:46:46.347Z,87.36
2023-01-30T20:49:18.775Z,86.95
2023-01-30T20:51:50.444Z,86.73
2023-01-30T20:54:21.629Z,86.85
2023-01-30T20:56:52.870Z,87.57
2023-01-30T20:59:24.680Z,88.33
2023-01-30T21:01:53.932Z,88.59
2023-01-30T21:04:24.962Z,88.53
2023-01-30T21:06:53.767Z,89.25
2023-01-30T21:09:24.209Z,88.52
2023-01-30T21:11:53.619Z,88.20
2023-01-30T21:14:22.705Z,88.08
2023-01-30T21:16:52.860Z,88.10
2023-01-30T21:19:22.108Z,88.27
2023-01-30T21:21:55.254Z,88.21
2023-01-30T21:24:29.766Z,88.23
2023-01-30T21:26:58.390Z,88.47
2023-01-30T21:29:29.643Z,88.32
2023-01-30T21:31:59.762Z,88.43
2023-01-30T21:34:28.400Z,88.25
2023-01-30T21:37:16.101Z,88.06
2023-01-30T21:40:04.021Z,88.87
2023-01-30T21:42:51.385Z,89.16
2023-01-30T21:45:21.515Z,89.32
2023-01-30T21:47:52.517Z,89.51
2023-01-30T21:50:21.500Z,88.87
2023-01-30T21:52:50.076Z,89.20
2023-01-30T21:55:19.185Z,89.43
2023-01-30T21:57:48.374Z,89.51
2023-01-30T22:00:17.575Z,89.36
2023-01-30T22:02:50.899Z,90.03
2023-01-30T22:05:19.868Z,90.27
2023-01-30T22:07:49.256Z,90.69
2023-01-30T22:10:18.143Z,90.56
2023-01-30T22:12:47.136Z,91.08
2023-01-30T22:15:15.823Z,92.21
2023-01-30T22:17:44.711Z,92.65
2023-01-30T22:20:14.123Z,91.20
2023-01-30T22:22:43.010Z,91.76
2023-01-30T22:25:12.106Z,91.60
2023-01-30T22:27:40.691Z,91.59
2023-01-30T22:30:10.806Z,91.58
2023-01-30T22:32:39.736Z,93.45
2023-01-30T22:35:09.308Z,93.54
2023-01-30T22:37:38.404Z,93.51
2023-01-30T22:40:08.603Z,93.04
2023-01-30T22:42:37.305Z,92.82
2023-01-30T22:45:06.716Z,92.45
2023-01-30T22:47:36.061Z,92.42
2023-01-30T22:50:05.847Z,92.31
2023-01-30T22:52:34.603Z,93.51
2023-01-30T22:55:03.801Z,94.05
2023-01-30T22:57:32.895Z,93.19
2023-01-30T23:00:01.688Z,93.89
2023-01-30T23:02:30.827Z,93.99
2023-01-30T23:05:00.177Z,93.76
2023-01-30T23:07:29.074Z,93.77
2023-01-30T23:09:58.632Z,95.91
2023-01-30T23:12:46.612Z,97.93
2023-01-30T23:15:15.818Z,99.80
2023-01-30T23:18:03.970Z,98.35
2023-01-30T23:20:33.374Z,98.05
2023-01-30T23:23:03.573Z,99.19
2023-01-30T23:25:32.726Z,100.00
2023-01-30T23:28:02.051Z,100.00
2023-01-30T23:30:31.461Z,99.94
2023-01-30T23:33:00.442Z,100.00
2023-01-30T23:35:30.464Z,100.00
2023-01-30T23:38:19.546Z,100.00
2023-01-30T23:40:49.595Z,100.00
2023-01-30T23:43:19.785Z,100.00
2023-01-30T23:45:49.012Z,100.00
2023-01-30T23:48:18.393Z,100.00
2023-01-30T23:50:47.803Z,100.00
2023-01-30T23:53:17.204Z,100.00
2023-01-30T23:55:53.975Z,100.00
2023-01-30T23:58:23.573Z,100.00
